sensor_id;sensor_type;location;lat;lon;timestamp;P1;durP1;ratioP1;P2;durP2;ratioP2
42364;SDS011;28498;54.400;18.566;2023-07-30T00:00:51;5.30;;;3.22;;
42364;SDS011;28498;54.400;18.566;2023-07-30T00:03:18;7.60;;;4.25;;
42364;SDS011;28498;54.400;18.566;2023-07-30T00:05:52;9.77;;;3.95;;
42364;SDS011;28498;54.400;18.566;2023-07-30T00:08:20;5.53;;;3.13;;
42364;SDS011;28498;54.400;18.566;2023-07-30T00:10:47;6.30;;;3.53;;
42364;SDS011;28498;54.400;18.566;2023-07-30T00:13:15;5.20;;;3.42;;
42364;SDS011;28498;54.400;18.566;2023-07-30T00:15:42;5.78;;;2.92;;
42364;SDS011;28498;54.400;18.566;2023-07-30T00:18:11;5.47;;;2.78;;
42364;SDS011;28498;54.400;18.566;2023-07-30T00:20:38;5.80;;;3.22;;
42364;SDS011;28498;54.400;18.566;2023-07-30T00:23:05;5.05;;;3.28;;
42364;SDS011;28498;54.400;18.566;2023-07-30T00:25:32;5.28;;;3.03;;
42364;SDS011;28498;54.400;18.566;2023-07-30T00:27:59;5.18;;;2.75;;
42364;SDS011;28498;54.400;18.566;2023-07-30T00:30:27;5.13;;;3.10;;
42364;SDS011;28498;54.400;18.566;2023-07-30T00:32:54;4.68;;;2.95;;
42364;SDS011;28498;54.400;18.566;2023-07-30T00:35:20;4.32;;;2.88;;
42364;SDS011;28498;54.400;18.566;2023-07-30T00:37:48;3.75;;;2.45;;
42364;SDS011;28498;54.400;18.566;2023-07-30T00:40:15;4.43;;;2.58;;
42364;SDS011;28498;54.400;18.566;2023-07-30T00:42:44;5.35;;;2.92;;
42364;SDS011;28498;54.400;18.566;2023-07-30T00:45:11;4.72;;;2.60;;
42364;SDS011;28498;54.400;18.566;2023-07-30T00:47:38;3.38;;;2.40;;
42364;SDS011;28498;54.400;18.566;2023-07-30T00:50:06;5.97;;;2.85;;
42364;SDS011;28498;54.400;18.566;2023-07-30T00:52:34;4.47;;;2.47;;
42364;SDS011;28498;54.400;18.566;2023-07-30T00:55:02;4.25;;;2.85;;
42364;SDS011;28498;54.400;18.566;2023-07-30T00:57:29;5.03;;;2.80;;
42364;SDS011;28498;54.400;18.566;2023-07-30T00:59:58;4.53;;;2.72;;
42364;SDS011;28498;54.400;18.566;2023-07-30T01:02:25;6.55;;;2.70;;
42364;SDS011;28498;54.400;18.566;2023-07-30T01:04:54;5.30;;;2.67;;
42364;SDS011;28498;54.400;18.566;2023-07-30T01:07:21;5.88;;;2.92;;
42364;SDS011;28498;54.400;18.566;2023-07-30T01:09:48;6.72;;;3.00;;
42364;SDS011;28498;54.400;18.566;2023-07-30T01:12:15;5.43;;;3.30;;
42364;SDS011;28498;54.400;18.566;2023-07-30T01:14:42;6.15;;;2.80;;
42364;SDS011;28498;54.400;18.566;2023-07-30T01:17:14;4.82;;;2.70;;
42364;SDS011;28498;54.400;18.566;2023-07-30T01:19:41;4.72;;;3.00;;
42364;SDS011;28498;54.400;18.566;2023-07-30T01:22:08;4.72;;;2.80;;
42364;SDS011;28498;54.400;18.566;2023-07-30T01:24:35;6.72;;;3.45;;
42364;SDS011;28498;54.400;18.566;2023-07-30T01:27:04;5.53;;;3.15;;
42364;SDS011;28498;54.400;18.566;2023-07-30T01:32:24;7.30;;;3.30;;
42364;SDS011;28498;54.400;18.566;2023-07-30T01:34:53;5.40;;;3.33;;
42364;SDS011;28498;54.400;18.566;2023-07-30T01:37:21;7.13;;;3.60;;
42364;SDS011;28498;54.400;18.566;2023-07-30T01:39:49;5.40;;;3.65;;
42364;SDS011;28498;54.400;18.566;2023-07-30T01:42:17;6.25;;;4.13;;
42364;SDS011;28498;54.400;18.566;2023-07-30T01:44:44;6.28;;;3.78;;
42364;SDS011;28498;54.400;18.566;2023-07-30T01:47:11;5.75;;;3.65;;
42364;SDS011;28498;54.400;18.566;2023-07-30T01:49:38;10.65;;;3.70;;
42364;SDS011;28498;54.400;18.566;2023-07-30T01:52:05;7.82;;;3.50;;
42364;SDS011;28498;54.400;18.566;2023-07-30T01:54:32;5.43;;;3.45;;
42364;SDS011;28498;54.400;18.566;2023-07-30T01:57:00;7.03;;;3.55;;
42364;SDS011;28498;54.400;18.566;2023-07-30T01:59:27;6.55;;;3.45;;
42364;SDS011;28498;54.400;18.566;2023-07-30T02:01:54;6.45;;;3.50;;
42364;SDS011;28498;54.400;18.566;2023-07-30T02:04:21;6.32;;;3.92;;
42364;SDS011;28498;54.400;18.566;2023-07-30T02:06:49;7.60;;;4.07;;
42364;SDS011;28498;54.400;18.566;2023-07-30T02:09:16;6.38;;;3.70;;
42364;SDS011;28498;54.400;18.566;2023-07-30T02:11:43;5.95;;;4.00;;
42364;SDS011;28498;54.400;18.566;2023-07-30T02:14:10;6.78;;;3.92;;
42364;SDS011;28498;54.400;18.566;2023-07-30T02:16:37;5.38;;;3.88;;
42364;SDS011;28498;54.400;18.566;2023-07-30T02:19:04;7.20;;;3.95;;
42364;SDS011;28498;54.400;18.566;2023-07-30T02:21:31;6.13;;;4.38;;
42364;SDS011;28498;54.400;18.566;2023-07-30T02:23:59;7.90;;;5.03;;
42364;SDS011;28498;54.400;18.566;2023-07-30T02:26:26;6.68;;;4.50;;
42364;SDS011;28498;54.400;18.566;2023-07-30T02:28:53;6.88;;;4.28;;
42364;SDS011;28498;54.400;18.566;2023-07-30T02:31:20;7.47;;;3.75;;
42364;SDS011;28498;54.400;18.566;2023-07-30T02:33:47;6.97;;;4.03;;
42364;SDS011;28498;54.400;18.566;2023-07-30T02:36:15;6.00;;;3.80;;
42364;SDS011;28498;54.400;18.566;2023-07-30T02:38:41;7.75;;;4.63;;
42364;SDS011;28498;54.400;18.566;2023-07-30T02:41:08;6.40;;;4.10;;
42364;SDS011;28498;54.400;18.566;2023-07-30T02:43:35;7.57;;;4.35;;
42364;SDS011;28498;54.400;18.566;2023-07-30T02:46:02;8.30;;;4.85;;
42364;SDS011;28498;54.400;18.566;2023-07-30T02:48:30;7.35;;;4.68;;
42364;SDS011;28498;54.400;18.566;2023-07-30T02:50:57;7.40;;;4.93;;
42364;SDS011;28498;54.400;18.566;2023-07-30T02:53:24;7.45;;;4.80;;
42364;SDS011;28498;54.400;18.566;2023-07-30T02:55:51;9.20;;;4.43;;
42364;SDS011;28498;54.400;18.566;2023-07-30T02:58:18;8.40;;;4.85;;
42364;SDS011;28498;54.400;18.566;2023-07-30T03:00:45;8.40;;;4.85;;
42364;SDS011;28498;54.400;18.566;2023-07-30T03:03:12;6.63;;;4.30;;
42364;SDS011;28498;54.400;18.566;2023-07-30T03:05:42;7.50;;;4.70;;
42364;SDS011;28498;54.400;18.566;2023-07-30T03:08:10;11.60;;;5.25;;
42364;SDS011;28498;54.400;18.566;2023-07-30T03:10:37;6.95;;;4.72;;
42364;SDS011;28498;54.400;18.566;2023-07-30T03:13:04;9.82;;;4.97;;
42364;SDS011;28498;54.400;18.566;2023-07-30T03:15:31;7.30;;;5.03;;
42364;SDS011;28498;54.400;18.566;2023-07-30T03:17:58;8.65;;;5.38;;
42364;SDS011;28498;54.400;18.566;2023-07-30T03:20:25;13.07;;;6.28;;
42364;SDS011;28498;54.400;18.566;2023-07-30T03:22:52;10.00;;;5.95;;
42364;SDS011;28498;54.400;18.566;2023-07-30T03:25:19;11.65;;;5.50;;
42364;SDS011;28498;54.400;18.566;2023-07-30T03:27:46;10.35;;;6.03;;
42364;SDS011;28498;54.400;18.566;2023-07-30T03:30:13;10.63;;;5.95;;
42364;SDS011;28498;54.400;18.566;2023-07-30T03:32:40;7.85;;;5.63;;
42364;SDS011;28498;54.400;18.566;2023-07-30T03:35:07;11.98;;;6.25;;
42364;SDS011;28498;54.400;18.566;2023-07-30T03:37:34;10.27;;;5.88;;
42364;SDS011;28498;54.400;18.566;2023-07-30T03:40:01;8.68;;;5.88;;
42364;SDS011;28498;54.400;18.566;2023-07-30T03:42:29;10.80;;;6.43;;
42364;SDS011;28498;54.400;18.566;2023-07-30T03:44:56;8.98;;;5.93;;
42364;SDS011;28498;54.400;18.566;2023-07-30T03:47:23;9.70;;;5.85;;
42364;SDS011;28498;54.400;18.566;2023-07-30T03:49:50;8.48;;;5.97;;
42364;SDS011;28498;54.400;18.566;2023-07-30T03:52:17;9.63;;;5.82;;
42364;SDS011;28498;54.400;18.566;2023-07-30T03:54:53;9.30;;;6.15;;
42364;SDS011;28498;54.400;18.566;2023-07-30T03:57:20;8.75;;;5.88;;
42364;SDS011;28498;54.400;18.566;2023-07-30T03:59:47;10.15;;;6.30;;
42364;SDS011;28498;54.400;18.566;2023-07-30T04:02:14;8.90;;;5.70;;
42364;SDS011;28498;54.400;18.566;2023-07-30T04:04:42;9.50;;;5.80;;
42364;SDS011;28498;54.400;18.566;2023-07-30T04:07:11;9.40;;;5.43;;
42364;SDS011;28498;54.400;18.566;2023-07-30T04:09:38;9.35;;;5.57;;
42364;SDS011;28498;54.400;18.566;2023-07-30T04:12:05;9.18;;;6.07;;
42364;SDS011;28498;54.400;18.566;2023-07-30T04:14:32;8.35;;;5.72;;
42364;SDS011;28498;54.400;18.566;2023-07-30T04:16:59;8.43;;;5.88;;
42364;SDS011;28498;54.400;18.566;2023-07-30T04:19:26;9.52;;;6.13;;
42364;SDS011;28498;54.400;18.566;2023-07-30T04:21:53;11.77;;;6.20;;
42364;SDS011;28498;54.400;18.566;2023-07-30T04:24:20;8.90;;;6.10;;
42364;SDS011;28498;54.400;18.566;2023-07-30T04:26:48;11.05;;;6.43;;
42364;SDS011;28498;54.400;18.566;2023-07-30T04:29:15;9.18;;;6.22;;
42364;SDS011;28498;54.400;18.566;2023-07-30T04:31:43;11.73;;;6.90;;
42364;SDS011;28498;54.400;18.566;2023-07-30T04:34:10;9.63;;;6.18;;
42364;SDS011;28498;54.400;18.566;2023-07-30T04:36:37;9.13;;;6.07;;
42364;SDS011;28498;54.400;18.566;2023-07-30T04:39:04;7.90;;;5.97;;
42364;SDS011;28498;54.400;18.566;2023-07-30T04:41:31;9.18;;;6.18;;
42364;SDS011;28498;54.400;18.566;2023-07-30T04:44:02;7.38;;;5.70;;
42364;SDS011;28498;54.400;18.566;2023-07-30T04:46:29;8.75;;;6.32;;
42364;SDS011;28498;54.400;18.566;2023-07-30T04:48:57;9.75;;;6.10;;
42364;SDS011;28498;54.400;18.566;2023-07-30T04:51:24;8.23;;;6.25;;
42364;SDS011;28498;54.400;18.566;2023-07-30T04:53:51;9.77;;;6.60;;
42364;SDS011;28498;54.400;18.566;2023-07-30T04:56:18;9.13;;;6.50;;
42364;SDS011;28498;54.400;18.566;2023-07-30T04:58:45;9.23;;;6.25;;
42364;SDS011;28498;54.400;18.566;2023-07-30T05:01:12;8.55;;;5.70;;
42364;SDS011;28498;54.400;18.566;2023-07-30T05:03:39;11.65;;;5.78;;
42364;SDS011;28498;54.400;18.566;2023-07-30T05:06:06;8.43;;;5.95;;
42364;SDS011;28498;54.400;18.566;2023-07-30T05:08:33;8.70;;;6.40;;
42364;SDS011;28498;54.400;18.566;2023-07-30T05:11:00;8.63;;;6.05;;
42364;SDS011;28498;54.400;18.566;2023-07-30T05:13:27;8.57;;;5.38;;
42364;SDS011;28498;54.400;18.566;2023-07-30T05:15:54;8.00;;;5.18;;
42364;SDS011;28498;54.400;18.566;2023-07-30T05:18:21;7.78;;;5.40;;
42364;SDS011;28498;54.400;18.566;2023-07-30T05:20:48;8.88;;;4.85;;
42364;SDS011;28498;54.400;18.566;2023-07-30T05:23:15;8.43;;;5.45;;
42364;SDS011;28498;54.400;18.566;2023-07-30T05:25:42;7.25;;;5.35;;
42364;SDS011;28498;54.400;18.566;2023-07-30T05:28:09;9.27;;;5.30;;
42364;SDS011;28498;54.400;18.566;2023-07-30T05:30:36;7.38;;;5.15;;
42364;SDS011;28498;54.400;18.566;2023-07-30T05:33:03;9.60;;;5.63;;
42364;SDS011;28498;54.400;18.566;2023-07-30T05:35:30;8.43;;;5.72;;
42364;SDS011;28498;54.400;18.566;2023-07-30T05:37:58;9.35;;;5.32;;
42364;SDS011;28498;54.400;18.566;2023-07-30T05:40:26;8.85;;;5.60;;
42364;SDS011;28498;54.400;18.566;2023-07-30T05:42:53;9.90;;;5.38;;
42364;SDS011;28498;54.400;18.566;2023-07-30T05:45:20;8.38;;;5.28;;
42364;SDS011;28498;54.400;18.566;2023-07-30T05:47:47;8.38;;;5.25;;
42364;SDS011;28498;54.400;18.566;2023-07-30T05:50:14;7.60;;;5.38;;
42364;SDS011;28498;54.400;18.566;2023-07-30T05:52:41;7.82;;;5.40;;
42364;SDS011;28498;54.400;18.566;2023-07-30T05:55:08;9.50;;;5.93;;
42364;SDS011;28498;54.400;18.566;2023-07-30T05:57:36;9.43;;;6.00;;
42364;SDS011;28498;54.400;18.566;2023-07-30T06:00:03;8.18;;;5.60;;
42364;SDS011;28498;54.400;18.566;2023-07-30T06:02:30;8.13;;;5.88;;
42364;SDS011;28498;54.400;18.566;2023-07-30T06:04:57;8.07;;;5.35;;
42364;SDS011;28498;54.400;18.566;2023-07-30T06:07:24;8.77;;;5.68;;
42364;SDS011;28498;54.400;18.566;2023-07-30T06:09:51;8.80;;;5.80;;
42364;SDS011;28498;54.400;18.566;2023-07-30T06:12:18;12.23;;;6.63;;
42364;SDS011;28498;54.400;18.566;2023-07-30T06:14:45;7.90;;;5.57;;
42364;SDS011;28498;54.400;18.566;2023-07-30T06:17:12;8.68;;;5.45;;
42364;SDS011;28498;54.400;18.566;2023-07-30T06:19:40;13.55;;;6.30;;
42364;SDS011;28498;54.400;18.566;2023-07-30T06:22:06;10.25;;;5.43;;
42364;SDS011;28498;54.400;18.566;2023-07-30T06:24:33;8.00;;;5.72;;
42364;SDS011;28498;54.400;18.566;2023-07-30T06:27:01;8.68;;;6.07;;
42364;SDS011;28498;54.400;18.566;2023-07-30T06:29:28;7.75;;;5.18;;
42364;SDS011;28498;54.400;18.566;2023-07-30T06:31:55;8.25;;;5.38;;
42364;SDS011;28498;54.400;18.566;2023-07-30T06:34:22;7.40;;;5.10;;
42364;SDS011;28498;54.400;18.566;2023-07-30T06:36:49;8.70;;;5.88;;
42364;SDS011;28498;54.400;18.566;2023-07-30T06:39:16;8.65;;;5.60;;
42364;SDS011;28498;54.400;18.566;2023-07-30T06:41:43;8.13;;;5.00;;
42364;SDS011;28498;54.400;18.566;2023-07-30T06:44:10;6.15;;;4.30;;
42364;SDS011;28498;54.400;18.566;2023-07-30T06:46:37;6.63;;;4.65;;
42364;SDS011;28498;54.400;18.566;2023-07-30T06:49:04;11.40;;;5.35;;
42364;SDS011;28498;54.400;18.566;2023-07-30T06:51:31;6.70;;;4.70;;
42364;SDS011;28498;54.400;18.566;2023-07-30T06:53:58;7.75;;;5.07;;
42364;SDS011;28498;54.400;18.566;2023-07-30T06:56:25;10.23;;;4.90;;
42364;SDS011;28498;54.400;18.566;2023-07-30T06:58:54;9.23;;;5.32;;
42364;SDS011;28498;54.400;18.566;2023-07-30T07:01:21;7.20;;;4.30;;
42364;SDS011;28498;54.400;18.566;2023-07-30T07:03:48;7.05;;;4.15;;
42364;SDS011;28498;54.400;18.566;2023-07-30T07:06:15;6.90;;;3.50;;
42364;SDS011;28498;54.400;18.566;2023-07-30T07:08:42;5.65;;;3.78;;
42364;SDS011;28498;54.400;18.566;2023-07-30T07:11:09;6.80;;;3.80;;
42364;SDS011;28498;54.400;18.566;2023-07-30T07:13:36;7.93;;;3.75;;
42364;SDS011;28498;54.400;18.566;2023-07-30T07:16:03;5.53;;;3.45;;
42364;SDS011;28498;54.400;18.566;2023-07-30T07:18:30;6.57;;;3.25;;
42364;SDS011;28498;54.400;18.566;2023-07-30T07:20:57;6.55;;;3.17;;
42364;SDS011;28498;54.400;18.566;2023-07-30T07:23:24;6.45;;;3.03;;
42364;SDS011;28498;54.400;18.566;2023-07-30T07:25:51;6.10;;;3.30;;
42364;SDS011;28498;54.400;18.566;2023-07-30T07:28:19;6.15;;;3.03;;
42364;SDS011;28498;54.400;18.566;2023-07-30T07:30:46;8.10;;;3.15;;
42364;SDS011;28498;54.400;18.566;2023-07-30T07:33:14;6.40;;;3.13;;
42364;SDS011;28498;54.400;18.566;2023-07-30T07:35:41;6.22;;;3.13;;
42364;SDS011;28498;54.400;18.566;2023-07-30T07:38:08;5.72;;;3.30;;
42364;SDS011;28498;54.400;18.566;2023-07-30T07:40:36;7.43;;;3.97;;
42364;SDS011;28498;54.400;18.566;2023-07-30T07:43:07;5.10;;;2.67;;
42364;SDS011;28498;54.400;18.566;2023-07-30T07:45:35;8.70;;;3.20;;
42364;SDS011;28498;54.400;18.566;2023-07-30T07:48:02;6.95;;;3.15;;
42364;SDS011;28498;54.400;18.566;2023-07-30T07:50:29;5.82;;;3.28;;
42364;SDS011;28498;54.400;18.566;2023-07-30T07:52:56;5.00;;;3.00;;
42364;SDS011;28498;54.400;18.566;2023-07-30T07:55:23;5.13;;;3.28;;
42364;SDS011;28498;54.400;18.566;2023-07-30T07:57:50;7.10;;;3.33;;
42364;SDS011;28498;54.400;18.566;2023-07-30T08:00:17;4.57;;;2.83;;
42364;SDS011;28498;54.400;18.566;2023-07-30T08:02:45;4.45;;;2.80;;
42364;SDS011;28498;54.400;18.566;2023-07-30T08:05:16;5.05;;;2.88;;
42364;SDS011;28498;54.400;18.566;2023-07-30T08:07:46;8.85;;;3.25;;
42364;SDS011;28498;54.400;18.566;2023-07-30T08:10:13;5.68;;;3.28;;
42364;SDS011;28498;54.400;18.566;2023-07-30T08:12:41;5.82;;;2.92;;
42364;SDS011;28498;54.400;18.566;2023-07-30T08:15:08;6.07;;;3.55;;
42364;SDS011;28498;54.400;18.566;2023-07-30T08:17:35;6.65;;;2.65;;
42364;SDS011;28498;54.400;18.566;2023-07-30T08:20:03;5.63;;;2.85;;
42364;SDS011;28498;54.400;18.566;2023-07-30T08:22:30;4.57;;;2.70;;
42364;SDS011;28498;54.400;18.566;2023-07-30T08:24:57;5.80;;;2.70;;
42364;SDS011;28498;54.400;18.566;2023-07-30T08:27:24;5.63;;;2.78;;
42364;SDS011;28498;54.400;18.566;2023-07-30T08:29:51;5.78;;;3.00;;
42364;SDS011;28498;54.400;18.566;2023-07-30T08:32:18;4.70;;;2.80;;
42364;SDS011;28498;54.400;18.566;2023-07-30T08:34:45;4.40;;;2.40;;
42364;SDS011;28498;54.400;18.566;2023-07-30T08:37:13;5.22;;;2.40;;
42364;SDS011;28498;54.400;18.566;2023-07-30T08:39:40;5.43;;;2.67;;
42364;SDS011;28498;54.400;18.566;2023-07-30T08:42:07;5.95;;;2.63;;
42364;SDS011;28498;54.400;18.566;2023-07-30T08:44:34;4.15;;;2.47;;
42364;SDS011;28498;54.400;18.566;2023-07-30T08:47:01;4.43;;;2.47;;
42364;SDS011;28498;54.400;18.566;2023-07-30T08:49:30;5.00;;;2.40;;
42364;SDS011;28498;54.400;18.566;2023-07-30T08:51:59;3.67;;;2.30;;
42364;SDS011;28498;54.400;18.566;2023-07-30T08:54:30;3.63;;;2.03;;
42364;SDS011;28498;54.400;18.566;2023-07-30T08:56:58;6.05;;;2.70;;
42364;SDS011;28498;54.400;18.566;2023-07-30T08:59:25;5.22;;;2.63;;
42364;SDS011;28498;54.400;18.566;2023-07-30T09:01:57;3.97;;;2.03;;
42364;SDS011;28498;54.400;18.566;2023-07-30T09:04:26;4.07;;;2.25;;
42364;SDS011;28498;54.400;18.566;2023-07-30T09:06:56;4.03;;;2.47;;
42364;SDS011;28498;54.400;18.566;2023-07-30T09:09:23;5.03;;;2.60;;
42364;SDS011;28498;54.400;18.566;2023-07-30T09:11:51;5.53;;;2.30;;
42364;SDS011;28498;54.400;18.566;2023-07-30T09:14:20;5.75;;;2.20;;
42364;SDS011;28498;54.400;18.566;2023-07-30T09:16:48;7.25;;;2.70;;
42364;SDS011;28498;54.400;18.566;2023-07-30T09:19:18;5.63;;;2.50;;
42364;SDS011;28498;54.400;18.566;2023-07-30T09:21:45;4.45;;;2.70;;
42364;SDS011;28498;54.400;18.566;2023-07-30T09:24:12;3.78;;;2.20;;
42364;SDS011;28498;54.400;18.566;2023-07-30T09:26:48;5.00;;;2.50;;
42364;SDS011;28498;54.400;18.566;2023-07-30T09:29:15;3.88;;;2.22;;
42364;SDS011;28498;54.400;18.566;2023-07-30T09:31:52;4.43;;;2.40;;
42364;SDS011;28498;54.400;18.566;2023-07-30T09:34:21;4.43;;;2.30;;
42364;SDS011;28498;54.400;18.566;2023-07-30T09:36:51;5.63;;;2.10;;
42364;SDS011;28498;54.400;18.566;2023-07-30T09:39:23;3.35;;;1.90;;
42364;SDS011;28498;54.400;18.566;2023-07-30T09:41:52;3.20;;;2.05;;
42364;SDS011;28498;54.400;18.566;2023-07-30T09:46:53;5.25;;;2.10;;
42364;SDS011;28498;54.400;18.566;2023-07-30T09:49:20;2.95;;;1.63;;
42364;SDS011;28498;54.400;18.566;2023-07-30T09:51:50;4.88;;;2.30;;
42364;SDS011;28498;54.400;18.566;2023-07-30T09:54:18;3.72;;;1.92;;
42364;SDS011;28498;54.400;18.566;2023-07-30T09:56:45;2.97;;;1.60;;
42364;SDS011;28498;54.400;18.566;2023-07-30T09:59:12;4.32;;;2.00;;
42364;SDS011;28498;54.400;18.566;2023-07-30T10:01:46;3.20;;;1.90;;
42364;SDS011;28498;54.400;18.566;2023-07-30T10:04:20;8.13;;;1.80;;
42364;SDS011;28498;54.400;18.566;2023-07-30T10:06:49;3.20;;;1.90;;
42364;SDS011;28498;54.400;18.566;2023-07-30T10:09:39;4.53;;;2.05;;
42364;SDS011;28498;54.400;18.566;2023-07-30T10:12:12;3.03;;;1.88;;
42364;SDS011;28498;54.400;18.566;2023-07-30T10:14:43;4.05;;;1.80;;
42364;SDS011;28498;54.400;18.566;2023-07-30T10:17:11;4.53;;;1.90;;
42364;SDS011;28498;54.400;18.566;2023-07-30T10:19:38;4.68;;;1.95;;
42364;SDS011;28498;54.400;18.566;2023-07-30T10:25:00;4.15;;;1.65;;
42364;SDS011;28498;54.400;18.566;2023-07-30T10:30:27;3.60;;;2.17;;
42364;SDS011;28498;54.400;18.566;2023-07-30T10:32:58;3.00;;;1.55;;
42364;SDS011;28498;54.400;18.566;2023-07-30T10:38:26;3.33;;;1.70;;
42364;SDS011;28498;54.400;18.566;2023-07-30T10:41:05;3.20;;;1.77;;
42364;SDS011;28498;54.400;18.566;2023-07-30T10:43:41;4.00;;;1.80;;
42364;SDS011;28498;54.400;18.566;2023-07-30T10:46:11;3.92;;;1.63;;
42364;SDS011;28498;54.400;18.566;2023-07-30T10:48:40;3.95;;;1.83;;
42364;SDS011;28498;54.400;18.566;2023-07-30T10:51:09;3.05;;;1.88;;
42364;SDS011;28498;54.400;18.566;2023-07-30T10:53:37;3.08;;;1.33;;
42364;SDS011;28498;54.400;18.566;2023-07-30T10:56:09;5.40;;;1.60;;
42364;SDS011;28498;54.400;18.566;2023-07-30T10:58:36;6.30;;;1.75;;
42364;SDS011;28498;54.400;18.566;2023-07-30T11:01:04;3.58;;;1.63;;
42364;SDS011;28498;54.400;18.566;2023-07-30T11:03:33;3.30;;;1.77;;
42364;SDS011;28498;54.400;18.566;2023-07-30T11:06:02;3.60;;;1.95;;
42364;SDS011;28498;54.400;18.566;2023-07-30T11:08:33;2.83;;;1.52;;
42364;SDS011;28498;54.400;18.566;2023-07-30T11:11:05;3.72;;;1.95;;
42364;SDS011;28498;54.400;18.566;2023-07-30T11:16:04;3.70;;;1.60;;
42364;SDS011;28498;54.400;18.566;2023-07-30T11:18:34;4.38;;;1.77;;
42364;SDS011;28498;54.400;18.566;2023-07-30T11:21:05;3.60;;;1.80;;
42364;SDS011;28498;54.400;18.566;2023-07-30T11:23:37;3.45;;;1.33;;
42364;SDS011;28498;54.400;18.566;2023-07-30T11:26:06;3.22;;;1.40;;
42364;SDS011;28498;54.400;18.566;2023-07-30T11:28:36;2.88;;;1.45;;
42364;SDS011;28498;54.400;18.566;2023-07-30T11:31:11;2.58;;;1.30;;
42364;SDS011;28498;54.400;18.566;2023-07-30T11:33:41;2.72;;;1.27;;
42364;SDS011;28498;54.400;18.566;2023-07-30T11:36:18;2.45;;;1.10;;
42364;SDS011;28498;54.400;18.566;2023-07-30T11:38:48;2.47;;;1.30;;
42364;SDS011;28498;54.400;18.566;2023-07-30T11:41:15;3.15;;;1.38;;
42364;SDS011;28498;54.400;18.566;2023-07-30T11:43:43;2.63;;;1.30;;
42364;SDS011;28498;54.400;18.566;2023-07-30T11:46:11;3.45;;;1.58;;
42364;SDS011;28498;54.400;18.566;2023-07-30T11:48:41;4.38;;;1.60;;
42364;SDS011;28498;54.400;18.566;2023-07-30T11:51:22;4.20;;;1.65;;
42364;SDS011;28498;54.400;18.566;2023-07-30T11:53:51;4.10;;;1.63;;
42364;SDS011;28498;54.400;18.566;2023-07-30T11:56:23;3.83;;;1.90;;
42364;SDS011;28498;54.400;18.566;2023-07-30T11:58:54;4.25;;;2.10;;
42364;SDS011;28498;54.400;18.566;2023-07-30T12:01:25;5.53;;;2.10;;
42364;SDS011;28498;54.400;18.566;2023-07-30T12:03:56;4.70;;;1.98;;
42364;SDS011;28498;54.400;18.566;2023-07-30T12:06:24;6.05;;;1.83;;
42364;SDS011;28498;54.400;18.566;2023-07-30T12:09:20;4.18;;;2.00;;
42364;SDS011;28498;54.400;18.566;2023-07-30T12:11:50;5.35;;;1.98;;
42364;SDS011;28498;54.400;18.566;2023-07-30T12:14:42;3.70;;;2.05;;
42364;SDS011;28498;54.400;18.566;2023-07-30T12:17:11;4.20;;;2.08;;
42364;SDS011;28498;54.400;18.566;2023-07-30T12:19:38;3.97;;;1.90;;
42364;SDS011;28498;54.400;18.566;2023-07-30T12:22:06;5.60;;;2.28;;
42364;SDS011;28498;54.400;18.566;2023-07-30T12:24:33;3.30;;;1.90;;
42364;SDS011;28498;54.400;18.566;2023-07-30T12:27:01;4.60;;;2.00;;
42364;SDS011;28498;54.400;18.566;2023-07-30T12:29:28;3.83;;;2.03;;
42364;SDS011;28498;54.400;18.566;2023-07-30T12:31:55;4.78;;;2.25;;
42364;SDS011;28498;54.400;18.566;2023-07-30T12:34:23;3.45;;;2.00;;
42364;SDS011;28498;54.400;18.566;2023-07-30T12:36:50;4.05;;;2.22;;
42364;SDS011;28498;54.400;18.566;2023-07-30T12:39:17;4.13;;;2.22;;
42364;SDS011;28498;54.400;18.566;2023-07-30T12:41:47;4.20;;;1.92;;
42364;SDS011;28498;54.400;18.566;2023-07-30T12:44:14;4.05;;;2.00;;
42364;SDS011;28498;54.400;18.566;2023-07-30T12:46:41;3.50;;;2.10;;
42364;SDS011;28498;54.400;18.566;2023-07-30T12:49:08;5.20;;;1.98;;
42364;SDS011;28498;54.400;18.566;2023-07-30T12:51:35;4.50;;;2.53;;
42364;SDS011;28498;54.400;18.566;2023-07-30T12:54:03;4.75;;;1.80;;
42364;SDS011;28498;54.400;18.566;2023-07-30T12:56:30;4.07;;;2.15;;
42364;SDS011;28498;54.400;18.566;2023-07-30T12:58:57;3.25;;;2.00;;
42364;SDS011;28498;54.400;18.566;2023-07-30T13:01:24;4.93;;;2.00;;
42364;SDS011;28498;54.400;18.566;2023-07-30T13:03:51;3.90;;;2.00;;
42364;SDS011;28498;54.400;18.566;2023-07-30T13:06:21;5.82;;;2.33;;
42364;SDS011;28498;54.400;18.566;2023-07-30T13:08:48;3.22;;;2.08;;
42364;SDS011;28498;54.400;18.566;2023-07-30T13:11:15;3.40;;;1.67;;
42364;SDS011;28498;54.400;18.566;2023-07-30T13:13:42;3.80;;;2.00;;
42364;SDS011;28498;54.400;18.566;2023-07-30T13:16:09;3.53;;;2.17;;
42364;SDS011;28498;54.400;18.566;2023-07-30T13:18:36;3.22;;;1.88;;
42364;SDS011;28498;54.400;18.566;2023-07-30T13:21:03;6.00;;;2.22;;
42364;SDS011;28498;54.400;18.566;2023-07-30T13:23:30;4.47;;;2.00;;
42364;SDS011;28498;54.400;18.566;2023-07-30T13:25:58;4.10;;;2.03;;
42364;SDS011;28498;54.400;18.566;2023-07-30T13:28:26;3.67;;;2.28;;
42364;SDS011;28498;54.400;18.566;2023-07-30T13:30:54;3.75;;;2.00;;
42364;SDS011;28498;54.400;18.566;2023-07-30T13:33:21;4.45;;;2.22;;
42364;SDS011;28498;54.400;18.566;2023-07-30T13:35:48;5.70;;;2.45;;
42364;SDS011;28498;54.400;18.566;2023-07-30T13:38:15;6.72;;;2.10;;
42364;SDS011;28498;54.400;18.566;2023-07-30T13:40:42;7.57;;;2.35;;
42364;SDS011;28498;54.400;18.566;2023-07-30T13:43:09;6.75;;;2.42;;
42364;SDS011;28498;54.400;18.566;2023-07-30T13:45:36;5.15;;;2.22;;
42364;SDS011;28498;54.400;18.566;2023-07-30T13:48:03;6.65;;;2.28;;
42364;SDS011;28498;54.400;18.566;2023-07-30T13:50:30;4.90;;;2.20;;
42364;SDS011;28498;54.400;18.566;2023-07-30T13:52:57;6.75;;;2.20;;
42364;SDS011;28498;54.400;18.566;2023-07-30T13:55:24;5.20;;;2.30;;
42364;SDS011;28498;54.400;18.566;2023-07-30T13:57:52;3.72;;;1.90;;
42364;SDS011;28498;54.400;18.566;2023-07-30T14:00:19;5.35;;;2.25;;
42364;SDS011;28498;54.400;18.566;2023-07-30T14:02:46;5.57;;;2.10;;
42364;SDS011;28498;54.400;18.566;2023-07-30T14:05:14;4.68;;;1.88;;
42364;SDS011;28498;54.400;18.566;2023-07-30T14:07:41;6.10;;;2.17;;
42364;SDS011;28498;54.400;18.566;2023-07-30T14:10:08;4.97;;;2.00;;
42364;SDS011;28498;54.400;18.566;2023-07-30T14:12:36;5.47;;;2.10;;
42364;SDS011;28498;54.400;18.566;2023-07-30T14:15:03;8.80;;;2.33;;
42364;SDS011;28498;54.400;18.566;2023-07-30T14:17:30;4.22;;;2.13;;
42364;SDS011;28498;54.400;18.566;2023-07-30T14:19:58;5.30;;;2.10;;
42364;SDS011;28498;54.400;18.566;2023-07-30T14:22:25;4.30;;;2.03;;
42364;SDS011;28498;54.400;18.566;2023-07-30T14:24:52;6.28;;;1.90;;
42364;SDS011;28498;54.400;18.566;2023-07-30T14:27:19;4.45;;;1.80;;
42364;SDS011;28498;54.400;18.566;2023-07-30T14:29:46;6.00;;;1.90;;
42364;SDS011;28498;54.400;18.566;2023-07-30T14:32:13;5.65;;;2.33;;
42364;SDS011;28498;54.400;18.566;2023-07-30T14:34:40;6.00;;;2.17;;
42364;SDS011;28498;54.400;18.566;2023-07-30T14:37:08;5.07;;;1.70;;
42364;SDS011;28498;54.400;18.566;2023-07-30T14:39:35;3.80;;;2.28;;
42364;SDS011;28498;54.400;18.566;2023-07-30T14:42:02;3.72;;;1.90;;
42364;SDS011;28498;54.400;18.566;2023-07-30T14:44:30;4.57;;;1.90;;
42364;SDS011;28498;54.400;18.566;2023-07-30T14:46:57;4.43;;;1.70;;
42364;SDS011;28498;54.400;18.566;2023-07-30T14:49:25;6.70;;;2.00;;
42364;SDS011;28498;54.400;18.566;2023-07-30T14:51:52;5.47;;;1.85;;
42364;SDS011;28498;54.400;18.566;2023-07-30T14:54:20;5.80;;;1.85;;